Time;durP1;ratioP1;P1;durP2;ratioP2;P2;SDS_P1;SDS_P2;PMS_P1;PMS_P2;Temp;Humidity;BMP_temperature;BMP_pressure;BME280_temperature;BME280_humidity;BME280_pressure;Samples;Min_cycle;Max_cycle;Signal;HPM_P1;HPM_P2
2022/10/01 04:02:22;;;;;;;3.93;3.40;;;8.00;96.30;;;;;;5091229;23;20495;-81
2022/10/01 04:04:48;;;;;;;5.03;3.90;;;8.00;96.30;;;;;;4996399;28;20532;-81
2022/10/01 04:07:13;;;;;;;4.93;4.13;;;8.10;96.30;;;;;;5018070;28;20179;-81
2022/10/01 04:09:39;;;;;;;5.50;4.40;;;8.10;96.30;;;;;;4997002;28;20177;-81
2022/10/01 04:12:04;;;;;;;8.70;4.63;;;8.00;96.30;;;;;;5013877;28;20200;-82
2022/10/01 04:14:30;;;;;;;4.20;3.80;;;8.00;96.30;;;;;;4997250;28;20639;-80
2022/10/01 04:16:55;;;;;;;5.63;3.20;;;8.20;96.30;;;;;;5006809;28;20204;-80
2022/10/01 04:19:21;;;;;;;4.97;4.23;;;8.30;96.30;;;;;;5008075;28;20196;-81
2022/10/01 07:04:58;;;;;;;5.20;3.23;;;10.30;96.30;;;;;;5006010;28;20463;-79
2022/10/01 07:24:46;;;;;;;3.60;3.27;;;11.30;96.30;;;;;;5016459;28;20466;-79
2022/10/01 07:37:54;;;;;;;6.20;5.50;;;11.00;96.30;;;;;;4824697;29;20493;-76
2022/10/01 07:40:19;;;;;;;4.80;2.90;;;11.40;96.30;;;;;;4955458;28;20470;-76
2022/10/01 07:42:55;;;;;;;3.47;2.00;;;11.60;96.30;;;;;;4980912;28;20456;-78
2022/10/01 07:45:22;;;;;;;6.20;2.40;;;11.90;96.30;;;;;;4989929;28;20216;-78
2022/10/01 07:47:53;;;;;;;3.17;2.87;;;11.90;96.30;;;;;;4998035;28;20422;-77
2022/10/01 07:50:19;;;;;;;4.97;3.07;;;11.90;96.30;;;;;;5000993;28;20470;-77
2022/10/01 07:52:44;;;;;;;12.07;10.80;;;11.90;96.30;;;;;;4999553;28;20484;-76
2022/10/01 07:55:12;;;;;;;7.87;4.20;;;12.00;96.30;;;;;;4988904;28;20187;-77
2022/10/01 07:57:38;;;;;;;5.27;3.27;;;12.00;96.30;;;;;;4997263;28;20235;-74
2022/10/01 08:00:04;;;;;;;4.40;2.53;;;12.00;96.30;;;;;;5000809;28;20501;-76
2022/10/01 08:02:30;;;;;;;2.70;2.00;;;11.90;96.30;;;;;;4993096;28;20197;-78
2022/10/01 08:07:39;;;;;;;3.07;2.50;;;11.50;96.30;;;;;;4993040;28;20553;-75
2022/10/01 08:10:05;;;;;;;4.27;2.70;;;11.40;96.30;;;;;;5002315;28;20424;-76
2022/10/01 08:12:31;;;;;;;8.87;3.20;;;11.40;96.30;;;;;;4993387;28;20193;-74
2022/10/01 08:14:56;;;;;;;3.13;2.33;;;11.20;96.30;;;;;;4977511;28;20192;-76
2022/10/01 08:17:22;;;;;;;2.93;2.50;;;11.20;96.30;;;;;;5001884;28;20185;-74
2022/10/01 08:19:47;;;;;;;10.50;2.40;;;11.20;96.30;;;;;;5007160;28;20200;-75
2022/10/01 08:22:13;;;;;;;2.60;2.00;;;11.00;96.30;;;;;;4974781;28;20197;-76
2022/10/01 08:24:38;;;;;;;3.23;2.20;;;11.00;96.30;;;;;;5003806;28;20209;-74
2022/10/01 08:27:04;;;;;;;2.87;2.10;;;11.10;96.30;;;;;;4999915;28;20166;-74
2022/10/01 08:29:33;;;;;;;2.30;2.03;;;11.10;96.30;;;;;;4999379;28;20664;-75
2022/10/01 08:31:58;;;;;;;3.57;2.40;;;11.10;96.30;;;;;;4997044;28;20203;-75
2022/10/01 08:34:24;;;;;;;4.67;3.07;;;11.00;96.30;;;;;;4990217;28;20424;-75
2022/10/01 08:36:50;;;;;;;12.87;7.47;;;11.00;96.30;;;;;;4982408;28;20200;-75
2022/10/01 08:39:16;;;;;;;3.93;3.17;;;11.00;96.30;;;;;;5001624;28;20199;-74
2022/10/01 08:42:09;;;;;;;2.50;2.30;;;11.10;96.30;;;;;;4999709;28;20447;-74
2022/10/01 08:44:40;;;;;;;2.73;2.03;;;11.10;96.30;;;;;;4998483;28;20464;-81
2022/10/01 08:47:18;;;;;;;3.60;1.93;;;11.10;96.30;;;;;;4988844;28;21007;-77
2022/10/01 08:49:52;;;;;;;5.47;2.80;;;11.00;96.30;;;;;;4999574;28;20893;-75
2022/10/01 08:52:28;;;;;;;2.37;2.07;;;11.10;96.30;;;;;;4997095;28;20424;-77
2022/10/01 08:55:00;;;;;;;3.20;2.30;;;11.10;96.30;;;;;;4986461;28;20440;-78
2022/10/01 08:57:30;;;;;;;3.50;2.93;;;11.10;96.30;;;;;;4993115;28;20564;-77
2022/10/01 09:00:05;;;;;;;8.30;3.57;;;11.10;96.30;;;;;;4998907;28;20507;-77
2022/10/01 09:02:32;;;;;;;4.63;3.60;;;11.20;96.30;;;;;;4998917;28;20468;-74
2022/10/01 09:05:09;;;;;;;6.90;2.97;;;11.50;96.30;;;;;;5002757;28;20464;-74
2022/10/01 09:07:50;;;;;;;7.80;2.80;;;11.60;96.30;;;;;;4992101;28;20413;-78
2022/10/01 09:10:24;;;;;;;3.47;3.17;;;11.60;96.30;;;;;;5003846;28;20482;-76
2022/10/01 09:13:12;;;;;;;3.70;2.87;;;11.70;96.30;;;;;;5000533;28;20407;-74
2022/10/01 09:15:53;;;;;;;1.93;1.47;;;11.70;96.30;;;;;;5004740;28;20825;-77
2022/10/01 09:18:33;;;;;;;25.03;2.87;;;11.70;96.30;;;;;;4999588;28;20918;-76
2022/10/01 09:20:59;;;;;;;1.47;1.37;;;11.80;96.30;;;;;;4996509;28;21725;-77
2022/10/01 09:23:28;;;;;;;6.17;2.40;;;11.90;96.30;;;;;;5005217;28;20570;-77
2022/10/01 09:26:01;;;;;;;3.63;2.13;;;12.00;96.30;;;;;;4984335;28;20180;-75
2022/10/01 09:28:29;;;;;;;3.93;1.77;;;12.00;96.30;;;;;;4991079;28;20404;-76
2022/10/01 09:30:59;;;;;;;1.73;1.60;;;12.00;96.30;;;;;;4992108;28;20441;-76
2022/10/01 09:33:33;;;;;;;2.30;1.40;;;11.90;96.30;;;;;;4992269;28;20516;-76
2022/10/01 09:36:05;;;;;;;5.60;1.90;;;11.80;96.30;;;;;;5000600;28;20471;-77
2022/10/01 09:38:44;;;;;;;4.33;2.07;;;11.70;96.30;;;;;;4986489;28;20435;-76
2022/10/01 09:41:11;;;;;;;1.87;1.50;;;11.70;96.30;;;;;;4982615;28;20450;-76
2022/10/01 09:43:39;;;;;;;1.83;1.50;;;11.70;96.30;;;;;;5008256;28;20676;-77
2022/10/01 09:46:12;;;;;;;1.70;1.47;;;11.60;96.30;;;;;;5011385;28;20828;-76
2022/10/01 09:48:48;;;;;;;2.50;2.00;;;11.50;96.30;;;;;;4993770;28;20423;-75
2022/10/01 09:51:21;;;;;;;13.30;9.20;;;11.50;96.30;;;;;;5000780;28;20436;-75
2022/10/01 09:54:02;;;;;;;3.43;2.93;;;11.50;96.30;;;;;;4992311;28;20455;-76
2022/10/01 09:56:33;;;;;;;3.40;1.40;;;11.60;96.30;;;;;;5010277;28;20970;-76
2022/10/01 09:59:04;;;;;;;2.63;1.60;;;11.60;96.30;;;;;;5005691;28;20409;-75
2022/10/01 10:01:54;;;;;;;2.00;1.10;;;11.80;96.30;;;;;;5012804;28;20428;-75
2022/10/01 10:04:22;;;;;;;2.33;1.20;;;11.80;96.30;;;;;;5012707;28;20513;-75
2022/10/01 10:06:58;;;;;;;3.00;1.73;;;11.50;96.30;;;;;;5012177;28;20404;-75
2022/10/01 10:09:29;;;;;;;1.77;0.90;;;11.30;96.30;;;;;;4996400;28;20884;-75
2022/10/01 10:11:57;;;;;;;1.20;1.00;;;11.20;96.30;;;;;;4999623;28;20432;-75
2022/10/01 10:14:43;;;;;;;1.77;1.67;;;11.10;96.30;;;;;;5000349;28;20427;-73
2022/10/01 10:17:17;;;;;;;2.23;1.27;;;11.10;96.30;;;;;;5009824;28;20416;-73
2022/10/01 10:19:50;;;;;;;3.83;1.53;;;11.00;96.30;;;;;;5011474;28;20412;-73
2022/10/01 10:22:26;;;;;;;1.63;1.00;;;10.90;96.30;;;;;;4993435;28;20451;-75
2022/10/01 10:24:53;;;;;;;1.10;1.00;;;10.80;96.30;;;;;;5011486;28;20451;-75
2022/10/01 10:27:28;;;;;;;2.60;1.10;;;10.80;96.30;;;;;;5011417;28;20481;-74
2022/10/01 10:30:07;;;;;;;1.00;0.90;;;10.80;96.30;;;;;;5006922;28;20408;-75
2022/10/01 10:32:33;;;;;;;3.90;1.57;;;10.50;96.30;;;;;;4990307;28;20443;-77
2022/10/01 10:35:04;;;;;;;3.53;1.00;;;10.50;96.30;;;;;;4994406;28;20790;-77
2022/10/01 10:37:34;;;;;;;2.07;0.90;;;10.40;96.30;;;;;;5011985;28;20404;-78
2022/10/01 10:40:01;;;;;;;1.20;1.10;;;10.30;96.30;;;;;;5015382;28;20435;-79
2022/10/01 10:42:27;;;;;;;1.70;0.90;;;10.20;96.30;;;;;;5014954;28;20423;-78
2022/10/01 10:44:56;;;;;;;1.50;1.23;;;10.20;96.30;;;;;;4997847;28;20448;-78
2022/10/01 10:47:23;;;;;;;4.13;2.30;;;10.10;96.30;;;;;;5015451;28;20764;-77
2022/10/01 10:49:53;;;;;;;11.27;7.20;;;10.20;96.30;;;;;;5003750;28;20432;-80
2022/10/01 10:52:23;;;;;;;2.70;1.40;;;10.10;96.30;;;;;;4997798;28;20445;-77
2022/10/01 10:54:53;;;;;;;3.97;2.10;;;10.10;96.30;;;;;;5015367;28;20492;-79
2022/10/01 10:57:33;;;;;;;1.60;1.50;;;10.20;96.30;;;;;;4989323;28;20951;-75
2022/10/01 11:00:10;;;;;;;1.77;1.10;;;10.10;96.30;;;;;;4995474;28;20873;-75
2022/10/01 11:02:39;;;;;;;1.13;0.90;;;10.00;96.30;;;;;;4995171;28;20483;-75
2022/10/01 11:05:32;;;;;;;14.50;9.97;;;10.00;96.30;;;;;;4997559;28;20959;-78
2022/10/01 11:08:07;;;;;;;7.77;4.87;;;9.90;96.30;;;;;;4998617;28;20428;-76
2022/10/01 11:10:59;;;;;;;1.93;1.43;;;10.00;96.30;;;;;;4995416;28;20428;-75
2022/10/01 11:13:34;;;;;;;30.43;19.93;;;10.10;96.30;;;;;;5013442;28;20780;-75
2022/10/01 11:16:12;;;;;;;10.30;7.47;;;10.00;96.30;;;;;;5014568;28;20411;-79
2022/10/01 11:18:54;;;;;;;11.43;7.50;;;10.00;96.30;;;;;;4996172;28;20423;-77
2022/10/01 11:21:47;;;;;;;1.03;0.83;;;9.90;96.30;;;;;;5002863;28;20459;-75
2022/10/01 11:24:50;;;;;;;2.87;2.00;;;9.90;96.30;;;;;;5016409;28;20451;-77
2022/10/01 11:27:33;;;;;;;1.00;0.87;;;9.80;96.30;;;;;;5010694;28;21073;-77
2022/10/01 11:30:23;;;;;;;1.17;0.77;;;9.80;96.30;;;;;;4994857;28;20459;-77
2022/10/01 11:33:02;;;;;;;7.83;5.17;;;9.90;96.30;;;;;;4994609;28;20409;-76
2022/10/01 11:35:49;;;;;;;1.00;0.87;;;9.90;96.30;;;;;;4994856;28;20544;-75
2022/10/01 11:38:35;;;;;;;1.40;1.17;;;9.90;96.30;;;;;;4994564;28;21023;-76
2022/10/01 11:41:13;;;;;;;10.93;6.23;;;9.90;96.30;;;;;;4995235;28;20433;-75
2022/10/01 11:43:43;;;;;;;1.40;0.77;;;9.90;96.30;;;;;;4994173;28;20413;-75
2022/10/01 11:46:14;;;;;;;2.77;1.87;;;9.90;96.30;;;;;;4991942;28;21019;-75
2022/10/01 11:48:56;;;;;;;1.60;1.03;;;9.80;96.30;;;;;;4993865;28;20487;-75
2022/10/01 11:51:37;;;;;;;1.23;1.13;;;9.80;96.30;;;;;;4993790;28;20428;-75
2022/10/01 11:54:12;;;;;;;1.73;0.93;;;9.80;96.30;;;;;;4994679;28;20431;-75
2022/10/01 11:59:55;;;;;;;1.00;0.80;;;9.90;96.30;;;;;;4994565;28;20463;-76
2022/10/01 12:02:37;;;;;;;1.10;0.90;;;10.00;96.30;;;;;;4994408;28;20439;-77
2022/10/01 12:08:08;;;;;;;4.23;1.00;;;10.00;96.30;;;;;;5448957;23;20595;-78
2022/10/01 12:10:59;;;;;;;3.73;0.60;;;10.10;96.30;;;;;;5003680;28;20482;-74
2022/10/01 12:13:34;;;;;;;1.00;0.70;;;10.00;96.30;;;;;;5013594;28;20494;-74
2022/10/01 12:16:17;;;;;;;1.23;0.90;;;10.10;96.30;;;;;;5014207;28;20410;-74
2022/10/01 12:19:09;;;;;;;3.10;0.90;;;10.10;96.30;;;;;;5013084;28;20412;-75
2022/10/01 12:22:01;;;;;;;1.00;0.70;;;10.20;96.30;;;;;;5014484;28;20895;-76
2022/10/01 12:24:41;;;;;;;1.50;0.70;;;10.20;96.30;;;;;;5013763;28;20459;-76
2022/10/01 12:30:23;;;;;;;4.10;0.70;;;10.20;96.30;;;;;;5428667;23;20485;-76
2022/10/01 12:33:21;;;;;;;1.20;1.00;;;10.20;96.30;;;;;;4952765;29;20449;-76
2022/10/01 12:36:07;;;;;;;1.00;0.63;;;10.00;96.30;;;;;;4947218;28;20525;-76
2022/10/01 12:38:54;;;;;;;0.90;0.70;;;9.90;96.30;;;;;;4999578;28;20950;-75
2022/10/01 12:41:55;;;;;;;1.10;0.60;;;10.00;96.30;;;;;;5033028;28;20894;-76
2022/10/01 12:44:53;;;;;;;1.00;0.70;;;10.00;96.30;;;;;;5015410;28;20878;-75
2022/10/01 12:47:36;;;;;;;1.27;0.60;;;10.00;96.30;;;;;;5032317;28;20795;-76
2022/10/01 12:50:17;;;;;;;1.10;0.70;;;9.90;96.30;;;;;;5015248;28;20419;-76
2022/10/01 12:53:02;;;;;;;1.30;0.80;;;9.90;96.30;;;;;;5032832;28;20407;-76
2022/10/01 12:55:56;;;;;;;1.00;0.67;;;10.00;96.30;;;;;;5015031;28;20514;-76
2022/10/01 12:58:38;;;;;;;0.80;0.60;;;10.10;96.30;;;;;;5032043;28;20433;-76
2022/10/01 13:01:33;;;;;;;1.03;0.63;;;9.90;96.30;;;;;;5014854;28;20419;-77
2022/10/01 13:04:17;;;;;;;0.80;0.60;;;9.90;96.30;;;;;;5014755;28;20458;-77
2022/10/01 13:07:08;;;;;;;0.90;0.60;;;9.90;96.30;;;;;;5014417;28;20925;-77
2022/10/01 13:09:52;;;;;;;1.30;0.60;;;9.90;96.30;;;;;;5014786;28;20514;-77
2022/10/01 13:12:25;;;;;;;1.10;0.87;;;9.80;96.30;;;;;;5014744;28;20421;-77
2022/10/01 13:14:52;;;;;;;2.13;1.20;;;9.80;96.30;;;;;;5014739;28;20415;-77
2022/10/01 13:17:33;;;;;;;3.77;1.30;;;9.90;96.30;;;;;;5014137;28;21024;-77
2022/10/01 13:20:27;;;;;;;2.30;2.10;;;9.90;96.30;;;;;;5014714;28;20446;-77
2022/10/01 13:22:58;;;;;;;1.20;0.83;;;9.90;96.30;;;;;;5014401;28;20423;-77
2022/10/01 13:25:35;;;;;;;1.10;0.80;;;9.90;96.30;;;;;;5032315;28;20458;-77
2022/10/01 13:28:16;;;;;;;1.00;0.70;;;9.90;96.30;;;;;;5031705;28;20415;-77
2022/10/01 13:31:13;;;;;;;1.57;0.90;;;9.90;96.30;;;;;;5032310;28;20461;-77
2022/10/01 13:33:39;;;;;;;2.07;1.40;;;10.00;96.30;;;;;;5005334;28;20473;-78
2022/10/01 13:36:06;;;;;;;11.77;3.90;;;10.10;96.30;;;;;;5032081;28;20395;-78
2022/10/01 13:38:43;;;;;;;4.50;2.60;;;10.10;96.30;;;;;;5031492;28;20191;-77
2022/10/01 13:41:20;;;;;;;1.20;0.77;;;10.10;96.30;;;;;;5014795;28;20832;-78
2022/10/01 13:43:58;;;;;;;13.07;2.93;;;10.20;96.30;;;;;;5031835;28;20461;-77
2022/10/01 13:46:29;;;;;;;1.77;0.70;;;10.20;96.30;;;;;;5032285;28;20538;-77
2022/10/01 13:49:01;;;;;;;1.13;0.93;;;10.30;96.30;;;;;;5013886;28;20533;-77
2022/10/01 13:51:36;;;;;;;0.90;0.60;;;10.40;96.30;;;;;;5032169;28;20433;-77
2022/10/01 13:54:05;;;;;;;10.87;7.73;;;10.60;96.30;;;;;;5031927;28;20516;-78
2022/10/01 13:56:35;;;;;;;4.77;2.83;;;10.60;96.30;;;;;;5031946;28;20883;-77
2022/10/01 13:59:02;;;;;;;2.50;2.00;;;10.70;96.30;;;;;;5013858;28;20407;-78
2022/10/01 14:01:39;;;;;;;1.27;1.00;;;10.90;96.30;;;;;;5031901;28;20418;-78
2022/10/01 14:04:39;;;;;;;0.90;0.67;;;11.00;96.30;;;;;;5031823;28;20446;-78
2022/10/01 14:07:15;;;;;;;1.40;1.07;;;11.10;96.30;;;;;;5013469;28;20526;-78
2022/10/01 14:09:45;;;;;;;0.80;0.50;;;11.10;96.30;;;;;;5032103;28;20410;-78
2022/10/01 14:15:57;;;;;;;0.80;0.50;;;11.20;96.30;;;;;;5036035;28;20394;-77
2022/10/01 14:18:23;;;;;;;2.77;0.93;;;11.10;96.30;;;;;;5034857;28;20803;-77
2022/10/01 14:21:01;;;;;;;1.77;0.60;;;11.20;96.30;;;;;;5035816;28;20767;-77
2022/10/01 14:23:45;;;;;;;1.67;0.50;;;11.30;96.30;;;;;;5017819;28;20421;-77
2022/10/01 14:26:33;;;;;;;17.53;10.17;;;11.20;96.30;;;;;;5035739;28;20434;-77
2022/10/01 14:29:13;;;;;;;0.80;0.50;;;11.20;96.30;;;;;;5020553;28;20437;-77
2022/10/01 14:31:55;;;;;;;4.97;0.90;;;11.20;96.30;;;;;;5035416;28;20932;-77
2022/10/01 14:34:32;;;;;;;1.20;0.80;;;11.20;96.30;;;;;;5035507;28;20498;-76
2022/10/01 14:36:58;;;;;;;1.23;1.00;;;11.20;96.30;;;;;;5034785;28;20423;-77
2022/10/01 14:39:28;;;;;;;1.00;0.60;;;11.10;96.30;;;;;;5017559;28;20425;-76
2022/10/01 14:41:56;;;;;;;1.70;0.70;;;11.00;96.30;;;;;;5017623;28;20207;-76
2022/10/01 14:44:41;;;;;;;0.80;0.50;;;11.00;96.30;;;;;;5035225;28;20449;-77
2022/10/01 14:47:18;;;;;;;1.07;0.80;;;10.90;96.30;;;;;;5016721;28;20446;-76
2022/10/01 14:49:44;;;;;;;2.50;0.70;;;10.80;96.30;;;;;;5017489;28;20501;-77
2022/10/01 14:52:27;;;;;;;1.37;0.87;;;10.70;96.30;;;;;;5035226;28;20830;-77
2022/10/01 14:54:56;;;;;;;1.43;0.60;;;10.70;96.30;;;;;;5034292;28;20411;-76
2022/10/01 14:57:48;;;;;;;1.30;1.00;;;10.60;96.30;;;;;;4998580;28;21021;-76
2022/10/01 15:00:26;;;;;;;0.80;0.60;;;10.60;96.30;;;;;;5014035;28;20404;-75
2022/10/01 15:03:11;;;;;;;0.80;0.63;;;10.50;96.30;;;;;;5014867;28;20443;-75
2022/10/01 15:05:37;;;;;;;0.90;0.60;;;10.50;96.30;;;;;;5015101;28;20443;-75
2022/10/01 15:08:20;;;;;;;0.90;0.60;;;10.60;96.30;;;;;;5014808;28;20427;-74
2022/10/01 15:10:55;;;;;;;1.00;0.70;;;10.60;96.30;;;;;;5015320;28;20245;-76
2022/10/01 15:13:27;;;;;;;2.17;0.70;;;10.50;96.30;;;;;;5015138;28;20396;-75
2022/10/01 15:15:54;;;;;;;0.90;0.70;;;10.50;96.30;;;;;;5015053;28;20443;-75
2022/10/01 15:18:21;;;;;;;1.10;0.90;;;10.60;96.30;;;;;;5014737;28;20435;-76
2022/10/01 15:20:58;;;;;;;0.80;0.50;;;10.60;96.30;;;;;;5015167;28;20471;-76
2022/10/01 15:23:27;;;;;;;1.77;1.23;;;10.60;96.30;;;;;;4997729;28;20419;-76
2022/10/01 15:25:54;;;;;;;1.17;0.97;;;10.60;96.30;;;;;;5013496;28;20452;-76
2022/10/01 15:28:32;;;;;;;5.20;3.60;;;10.60;96.30;;;;;;4996920;28;20444;-76
2022/10/01 15:30:59;;;;;;;2.43;2.07;;;10.60;96.30;;;;;;5014829;28;20400;-75
2022/10/01 15:33:34;;;;;;;2.53;0.70;;;10.60;96.30;;;;;;5014680;28;20422;-75
2022/10/01 15:36:03;;;;;;;1.77;0.70;;;10.60;96.30;;;;;;5014965;28;20402;-76
2022/10/01 15:38:31;;;;;;;1.00;0.70;;;10.60;96.30;;;;;;5014444;28;20518;-76
2022/10/01 15:40:59;;;;;;;1.60;0.80;;;10.60;96.30;;;;;;5014595;28;20408;-76
2022/10/01 15:43:26;;;;;;;1.10;0.70;;;10.60;96.30;;;;;;5014600;28;20435;-76
2022/10/01 15:46:03;;;;;;;0.90;0.73;;;10.50;96.30;;;;;;5014493;28;20462;-76
2022/10/01 15:48:30;;;;;;;3.30;0.90;;;10.50;96.30;;;;;;5014148;28;20454;-77
2022/10/01 15:51:04;;;;;;;5.53;0.70;;;10.50;96.30;;;;;;4996784;28;20454;-76
2022/10/01 15:53:32;;;;;;;0.90;0.70;;;10.50;96.30;;;;;;5014526;28;20389;-76
2022/10/01 15:55:59;;;;;;;1.63;0.90;;;10.50;96.30;;;;;;5014467;28;20423;-76
2022/10/01 15:58:30;;;;;;;1.87;1.37;;;10.50;96.30;;;;;;5025975;28;20430;-76
2022/10/01 16:01:05;;;;;;;1.67;1.00;;;10.50;96.30;;;;;;5026827;28;20419;-76
2022/10/01 16:03:37;;;;;;;1.27;0.97;;;10.50;96.30;;;;;;5014364;28;20534;-78
2022/10/01 16:06:15;;;;;;;1.00;0.70;;;10.50;96.30;;;;;;5014130;28;20512;-77
2022/10/01 16:09:06;;;;;;;0.90;0.70;;;10.50;96.30;;;;;;5025138;28;20442;-76
2022/10/01 16:11:50;;;;;;;2.40;0.93;;;10.60;96.30;;;;;;5054054;28;20421;-78
2022/10/01 16:14:21;;;;;;;1.63;0.70;;;10.60;96.30;;;;;;5036190;28;20441;-76
2022/10/01 16:16:47;;;;;;;7.50;5.17;;;10.50;96.30;;;;;;5032414;28;20468;-77
2022/10/01 16:19:28;;;;;;;5.93;1.90;;;10.60;96.30;;;;;;5030483;28;20455;-77
2022/10/01 16:22:19;;;;;;;1.97;0.70;;;10.60;96.30;;;;;;5035987;28;20985;-77
2022/10/01 16:24:46;;;;;;;1.50;1.30;;;10.50;96.30;;;;;;5040395;28;20453;-81
2022/10/01 16:27:35;;;;;;;1.00;0.60;;;10.60;96.30;;;;;;5035132;28;20434;-80
2022/10/01 16:30:06;;;;;;;1.20;0.70;;;10.60;96.30;;;;;;5019211;28;20434;-82
2022/10/01 16:32:32;;;;;;;1.03;0.70;;;10.60;96.30;;;;;;5002844;28;20416;-80
2022/10/01 16:35:16;;;;;;;1.00;0.80;;;10.60;96.30;;;;;;5008794;28;20931;-80
2022/10/01 16:37:44;;;;;;;1.30;0.90;;;10.60;96.30;;;;;;4995527;28;20450;-82
2022/10/01 16:40:10;;;;;;;1.20;0.60;;;10.60;96.30;;;;;;4995980;28;20439;-80
2022/10/01 16:42:36;;;;;;;0.90;0.57;;;10.60;96.30;;;;;;5018973;28;20411;-78
2022/10/01 16:45:06;;;;;;;0.90;0.60;;;10.60;96.30;;;;;;5033495;28;20804;-80
2022/10/01 16:47:32;;;;;;;0.90;0.67;;;10.60;96.30;;;;;;5032830;28;20423;-80
2022/10/01 16:49:57;;;;;;;0.90;0.73;;;10.60;96.30;;;;;;5015629;28;20949;-82
2022/10/01 16:52:23;;;;;;;1.10;0.70;;;10.60;96.30;;;;;;5033261;28;20407;-80
2022/10/01 16:54:48;;;;;;;1.50;0.70;;;10.60;96.30;;;;;;5032989;28;20177;-78
2022/10/01 16:57:15;;;;;;;0.90;0.60;;;10.60;96.30;;;;;;5027804;28;20192;-77
2022/10/01 16:59:41;;;;;;;1.93;0.60;;;10.60;96.30;;;;;;5014829;28;20199;-81
2022/10/01 17:02:13;;;;;;;1.00;0.80;;;10.60;96.30;;;;;;5014784;28;20922;-79
2022/10/01 17:04:39;;;;;;;1.20;0.70;;;10.60;96.30;;;;;;5013968;28;20294;-80
2022/10/01 17:07:05;;;;;;;1.20;0.70;;;10.70;96.30;;;;;;5031704;28;20466;-80
2022/10/01 17:09:30;;;;;;;1.10;0.70;;;10.60;96.30;;;;;;5032722;28;20407;-80
2022/10/01 17:11:57;;;;;;;1.00;0.70;;;10.60;96.30;;;;;;5032558;28;20168;-79
2022/10/01 17:14:23;;;;;;;0.90;0.60;;;10.60;96.30;;;;;;5024911;28;20180;-79
2022/10/01 17:16:49;;;;;;;2.30;1.00;;;10.60;96.30;;;;;;4994265;28;20498;-80
2022/10/01 17:19:16;;;;;;;1.10;0.90;;;10.60;96.30;;;;;;5012559;28;20423;-77
2022/10/01 17:21:41;;;;;;;1.77;1.10;;;10.60;96.30;;;;;;5017461;28;20419;-77
2022/10/01 17:24:10;;;;;;;1.10;0.77;;;10.60;96.30;;;;;;5026847;28;20447;-77
2022/10/01 17:26:40;;;;;;;0.90;0.70;;;10.60;96.30;;;;;;5031998;28;20655;-77
2022/10/01 17:29:08;;;;;;;2.00;1.07;;;10.60;96.30;;;;;;5014073;28;20447;-77
2022/10/01 17:31:45;;;;;;;1.10;0.80;;;10.50;96.30;;;;;;5022735;28;20443;-78
2022/10/01 17:34:10;;;;;;;0.93;0.77;;;10.40;96.30;;;;;;5004854;28;21005;-77
2022/10/01 17:36:37;;;;;;;2.00;0.87;;;10.40;96.30;;;;;;5014022;28;20510;-77
2022/10/01 17:39:02;;;;;;;8.17;0.90;;;10.30;96.30;;;;;;5013939;28;20539;-77
2022/10/01 17:41:28;;;;;;;1.37;1.07;;;10.30;96.30;;;;;;5031787;28;20902;-77
2022/10/01 17:43:53;;;;;;;2.00;1.10;;;10.40;96.30;;;;;;5031804;28;20655;-78
2022/10/01 17:46:19;;;;;;;2.17;0.90;;;10.40;96.30;;;;;;5031962;28;20607;-77
2022/10/01 17:48:48;;;;;;;5.47;1.27;;;10.40;96.30;;;;;;5030489;28;20210;-77
2022/10/01 17:51:14;;;;;;;2.93;1.20;;;10.40;96.30;;;;;;5032039;28;20695;-78
2022/10/01 17:53:40;;;;;;;2.13;1.17;;;10.40;96.30;;;;;;5014039;28;20449;-79
2022/10/01 17:56:07;;;;;;;2.03;1.07;;;10.40;96.30;;;;;;5032014;28;20494;-78
2022/10/01 17:58:33;;;;;;;2.70;1.03;;;10.30;96.30;;;;;;5031754;28;20191;-79
2022/10/01 18:00:58;;;;;;;1.30;0.93;;;10.40;96.30;;;;;;5030620;28;20407;-79
2022/10/01 18:03:24;;;;;;;2.60;1.20;;;10.40;96.30;;;;;;5006912;28;20177;-78
2022/10/01 18:05:53;;;;;;;1.50;1.00;;;10.40;96.30;;;;;;5012738;28;20193;-79
2022/10/01 18:08:18;;;;;;;1.67;1.10;;;10.50;96.30;;;;;;5011104;28;20668;-79
2022/10/01 18:10:44;;;;;;;1.83;1.20;;;10.50;96.30;;;;;;5036717;28;20479;-78
2022/10/01 18:13:09;;;;;;;2.43;1.10;;;10.60;96.30;;;;;;5019278;28;20215;-78
2022/10/01 18:15:35;;;;;;;1.33;0.80;;;10.60;96.30;;;;;;5003119;28;20620;-78
2022/10/01 18:18:00;;;;;;;2.77;1.20;;;10.60;96.30;;;;;;5013604;28;20691;-78
2022/10/01 18:20:26;;;;;;;2.17;0.93;;;10.50;96.30;;;;;;4998364;28;20208;-79
2022/10/01 18:22:52;;;;;;;2.50;1.00;;;10.50;96.30;;;;;;5015777;28;20184;-80
2022/10/01 18:25:18;;;;;;;2.03;1.00;;;10.50;96.30;;;;;;4997910;28;20726;-80
2022/10/01 18:27:45;;;;;;;3.43;0.90;;;10.50;96.30;;;;;;4996813;28;20205;-80
2022/10/01 18:30:11;;;;;;;1.10;0.77;;;10.40;96.30;;;;;;5013750;28;20794;-79
2022/10/01 18:32:46;;;;;;;1.60;0.83;;;10.30;96.30;;;;;;5011899;28;20437;-80
2022/10/01 18:35:20;;;;;;;1.47;1.10;;;10.30;96.30;;;;;;5012053;28;20411;-79
2022/10/01 18:37:52;;;;;;;1.10;1.00;;;10.30;96.30;;;;;;5012027;28;20431;-80
2022/10/01 18:40:28;;;;;;;1.97;0.90;;;10.30;96.30;;;;;;4995177;28;20427;-80
2022/10/01 18:43:13;;;;;;;1.70;0.80;;;10.20;96.30;;;;;;4992456;28;20411;-81
2022/10/01 18:46:20;;;;;;;1.63;1.13;;;10.30;96.30;;;;;;4993842;28;20567;-80
2022/10/01 18:49:11;;;;;;;1.93;0.87;;;10.20;96.30;;;;;;5018890;28;20462;-81
2022/10/01 18:51:55;;;;;;;1.40;1.00;;;10.10;96.30;;;;;;5021984;28;20477;-81
2022/10/01 18:54:42;;;;;;;4.50;0.80;;;10.10;96.30;;;;;;4997348;28;20430;-80
2022/10/01 18:59:45;;;;;;;1.23;0.70;;;9.90;96.30;;;;;;5379975;23;1055788;-77
2022/10/01 19:02:38;;;;;;;1.00;0.80;;;9.90;96.30;;;;;;4997844;28;20232;-78
2022/10/01 19:05:33;;;;;;;1.67;1.00;;;9.90;96.30;;;;;;4997642;28;20463;-79
2022/10/01 19:08:12;;;;;;;2.80;1.13;;;9.90;96.30;;;;;;5021059;28;20931;-76
2022/10/01 19:10:54;;;;;;;3.33;1.10;;;10.00;96.30;;;;;;5035124;28;20410;-77
2022/10/01 19:13:53;;;;;;;1.40;1.00;;;10.00;96.30;;;;;;5035185;28;20430;-77
2022/10/01 19:16:40;;;;;;;2.70;0.90;;;9.90;96.30;;;;;;5035113;28;20800;-78
2022/10/01 19:19:41;;;;;;;1.00;0.80;;;9.90;96.30;;;;;;5016697;28;20484;-78
2022/10/01 19:22:13;;;;;;;4.00;1.17;;;10.00;96.30;;;;;;4995742;28;20405;-79
2022/10/01 19:25:06;;;;;;;1.00;0.70;;;10.00;96.30;;;;;;4995165;28;20451;-78
2022/10/01 19:27:42;;;;;;;0.90;0.70;;;9.90;96.30;;;;;;4993526;28;20441;-76
2022/10/01 19:30:11;;;;;;;1.17;1.07;;;9.80;96.30;;;;;;4978048;28;20431;-78
2022/10/01 19:32:46;;;;;;;1.60;0.97;;;9.70;96.30;;;;;;4995715;28;20405;-77
2022/10/01 19:35:19;;;;;;;1.00;0.77;;;9.80;96.30;;;;;;4995126;28;20408;-77
2022/10/01 19:37:56;;;;;;;1.27;0.80;;;9.70;96.30;;;;;;4994786;28;20486;-77
2022/10/01 19:40:39;;;;;;;3.13;1.07;;;9.80;96.30;;;;;;5014882;28;20396;-78
2022/10/01 19:43:05;;;;;;;1.60;1.00;;;9.90;96.30;;;;;;4994012;28;20448;-78
2022/10/01 19:46:07;;;;;;;3.50;1.00;;;9.80;96.30;;;;;;5014872;28;20998;-76
2022/10/01 19:49:12;;;;;;;1.10;0.80;;;9.80;96.30;;;;;;5014038;28;20219;-76
2022/10/01 19:51:44;;;;;;;3.67;1.57;;;9.70;96.30;;;;;;4999595;28;20430;-78
2022/10/01 19:54:19;;;;;;;1.73;0.80;;;9.70;96.30;;;;;;5031583;28;20407;-77
2022/10/01 19:56:50;;;;;;;1.00;0.80;;;9.70;96.30;;;;;;4988116;28;20438;-79
2022/10/01 19:59:20;;;;;;;2.67;1.20;;;9.70;96.30;;;;;;5013992;28;20861;-77
2022/10/01 20:01:53;;;;;;;0.90;0.70;;;9.60;96.30;;;;;;5002049;28;20482;-79
2022/10/01 20:04:38;;;;;;;2.33;1.20;;;9.70;96.30;;;;;;5014575;28;20623;-77
2022/10/01 20:07:10;;;;;;;1.53;0.97;;;9.80;96.30;;;;;;4993236;28;20456;-77
2022/10/01 20:09:43;;;;;;;1.20;0.90;;;9.80;96.30;;;;;;4992663;28;21155;-76
2022/10/01 20:12:14;;;;;;;4.83;1.00;;;9.90;96.30;;;;;;5004875;28;20407;-80
2022/10/01 20:15:08;;;;;;;4.43;1.23;;;9.90;96.30;;;;;;5023747;28;20445;-80
2022/10/01 20:17:48;;;;;;;2.30;1.10;;;9.90;96.30;;;;;;5012090;28;20439;-80
2022/10/01 20:20:28;;;;;;;1.57;0.80;;;10.00;96.30;;;;;;5009815;28;20421;-80
2022/10/01 20:23:23;;;;;;;2.30;0.90;;;10.00;96.30;;;;;;5018338;28;20427;-80
2022/10/01 20:25:56;;;;;;;2.33;0.90;;;10.00;96.30;;;;;;4989653;28;21006;-80
2022/10/01 20:28:31;;;;;;;1.93;1.07;;;10.00;96.30;;;;;;5008309;28;20811;-80
2022/10/01 20:31:18;;;;;;;1.13;0.70;;;9.90;96.30;;;;;;4990271;28;20412;-79
2022/10/01 20:34:05;;;;;;;1.83;0.90;;;9.80;96.30;;;;;;4995292;28;20469;-80
2022/10/01 20:36:48;;;;;;;2.83;1.13;;;9.80;96.30;;;;;;4993253;28;20814;-80
2022/10/01 20:39:52;;;;;;;2.70;1.10;;;9.70;96.30;;;;;;4997288;28;20916;-79
2022/10/01 20:42:37;;;;;;;3.53;0.97;;;9.70;96.30;;;;;;4910060;29;20428;-80
2022/10/01 20:45:05;;;;;;;1.43;1.00;;;9.80;96.30;;;;;;4989190;28;20463;-80
2022/10/01 20:47:39;;;;;;;1.67;0.80;;;9.80;96.30;;;;;;5028263;28;20445;-80
2022/10/01 20:50:08;;;;;;;1.20;0.90;;;9.90;96.30;;;;;;5017956;28;20503;-80
2022/10/01 20:53:02;;;;;;;4.90;1.50;;;9.90;96.30;;;;;;5034621;28;20760;-79
2022/10/01 20:55:37;;;;;;;4.60;1.10;;;9.90;96.30;;;;;;5012822;28;20433;-80
2022/10/01 20:58:10;;;;;;;2.30;1.17;;;9.90;96.30;;;;;;4994865;28;20474;-81